sensor_id;sensor_type;location;lat;lon;timestamp;P1;durP1;ratioP1;P2;durP2;ratioP2
33740;SDS011;20065;48.380;10.892;2022-11-04T00:01:04;19.25;;;11.88;;
33740;SDS011;20065;48.380;10.892;2022-11-04T00:03:51;11.77;;;9.35;;
33740;SDS011;20065;48.380;10.892;2022-11-04T00:06:38;15.13;;;9.88;;
33740;SDS011;20065;48.380;10.892;2022-11-04T00:09:28;11.38;;;8.70;;
33740;SDS011;20065;48.380;10.892;2022-11-04T00:12:15;10.20;;;7.65;;
33740;SDS011;20065;48.380;10.892;2022-11-04T00:15:10;10.85;;;8.38;;
33740;SDS011;20065;48.380;10.892;2022-11-04T00:18:14;11.30;;;7.45;;
33740;SDS011;20065;48.380;10.892;2022-11-04T00:21:01;9.88;;;6.63;;
33740;SDS011;20065;48.380;10.892;2022-11-04T00:24:05;11.50;;;7.47;;
33740;SDS011;20065;48.380;10.892;2022-11-04T00:27:18;9.15;;;6.30;;
33740;SDS011;20065;48.380;10.892;2022-11-04T00:30:24;7.85;;;5.80;;
33740;SDS011;20065;48.380;10.892;2022-11-04T00:33:10;9.50;;;5.60;;
33740;SDS011;20065;48.380;10.892;2022-11-04T00:36:12;7.75;;;4.68;;
33740;SDS011;20065;48.380;10.892;2022-11-04T00:38:58;7.05;;;4.55;;
33740;SDS011;20065;48.380;10.892;2022-11-04T00:41:44;8.93;;;4.15;;
33740;SDS011;20065;48.380;10.892;2022-11-04T00:44:30;5.80;;;3.85;;
33740;SDS011;20065;48.380;10.892;2022-11-04T00:47:17;9.40;;;5.00;;
33740;SDS011;20065;48.380;10.892;2022-11-04T00:50:03;7.18;;;4.65;;
33740;SDS011;20065;48.380;10.892;2022-11-04T00:52:49;7.75;;;4.68;;
33740;SDS011;20065;48.380;10.892;2022-11-04T00:55:36;7.13;;;4.70;;
33740;SDS011;20065;48.380;10.892;2022-11-04T00:58:22;7.45;;;4.18;;
33740;SDS011;20065;48.380;10.892;2022-11-04T01:01:13;8.00;;;3.90;;
33740;SDS011;20065;48.380;10.892;2022-11-04T01:04:03;7.95;;;3.60;;
33740;SDS011;20065;48.380;10.892;2022-11-04T01:06:52;5.35;;;3.30;;
33740;SDS011;20065;48.380;10.892;2022-11-04T01:09:42;5.60;;;3.47;;
33740;SDS011;20065;48.380;10.892;2022-11-04T01:12:28;4.20;;;2.78;;
33740;SDS011;20065;48.380;10.892;2022-11-04T01:15:14;4.93;;;2.63;;
33740;SDS011;20065;48.380;10.892;2022-11-04T01:18:00;5.20;;;2.90;;
33740;SDS011;20065;48.380;10.892;2022-11-04T01:20:46;5.45;;;2.78;;
33740;SDS011;20065;48.380;10.892;2022-11-04T01:23:33;5.25;;;2.90;;
33740;SDS011;20065;48.380;10.892;2022-11-04T01:26:20;4.82;;;2.10;;
33740;SDS011;20065;48.380;10.892;2022-11-04T01:29:08;5.35;;;2.50;;
33740;SDS011;20065;48.380;10.892;2022-11-04T01:31:54;5.38;;;2.20;;
33740;SDS011;20065;48.380;10.892;2022-11-04T01:34:40;4.65;;;2.10;;
33740;SDS011;20065;48.380;10.892;2022-11-04T01:37:27;4.90;;;1.95;;
33740;SDS011;20065;48.380;10.892;2022-11-04T01:40:13;3.70;;;1.85;;
33740;SDS011;20065;48.380;10.892;2022-11-04T01:42:59;3.03;;;1.60;;
33740;SDS011;20065;48.380;10.892;2022-11-04T01:45:46;4.70;;;2.30;;
33740;SDS011;20065;48.380;10.892;2022-11-04T01:48:43;4.82;;;2.10;;
33740;SDS011;20065;48.380;10.892;2022-11-04T01:51:31;4.75;;;2.10;;
33740;SDS011;20065;48.380;10.892;2022-11-04T01:54:19;3.75;;;1.80;;
33740;SDS011;20065;48.380;10.892;2022-11-04T01:57:06;3.95;;;2.03;;
33740;SDS011;20065;48.380;10.892;2022-11-04T01:59:59;3.00;;;1.60;;
33740;SDS011;20065;48.380;10.892;2022-11-04T02:03:07;3.85;;;1.77;;
33740;SDS011;20065;48.380;10.892;2022-11-04T02:05:57;3.08;;;1.52;;
33740;SDS011;20065;48.380;10.892;2022-11-04T02:08:45;4.68;;;1.92;;
33740;SDS011;20065;48.380;10.892;2022-11-04T02:11:31;3.70;;;2.25;;
33740;SDS011;20065;48.380;10.892;2022-11-04T02:14:36;4.45;;;1.42;;
33740;SDS011;20065;48.380;10.892;2022-11-04T02:17:36;5.63;;;2.08;;
33740;SDS011;20065;48.380;10.892;2022-11-04T02:23:51;3.92;;;1.92;;
33740;SDS011;20065;48.380;10.892;2022-11-04T02:30:25;3.90;;;1.70;;
33740;SDS011;20065;48.380;10.892;2022-11-04T02:36:09;4.82;;;2.20;;
33740;SDS011;20065;48.380;10.892;2022-11-04T02:39:09;2.30;;;1.30;;
33740;SDS011;20065;48.380;10.892;2022-11-04T02:56:59;3.00;;;1.40;;
33740;SDS011;20065;48.380;10.892;2022-11-04T02:59:49;3.05;;;1.20;;
33740;SDS011;20065;48.380;10.892;2022-11-04T03:02:43;3.42;;;1.45;;
33740;SDS011;20065;48.380;10.892;2022-11-04T03:05:39;2.95;;;1.10;;
33740;SDS011;20065;48.380;10.892;2022-11-04T03:08:33;2.33;;;1.10;;
33740;SDS011;20065;48.380;10.892;2022-11-04T03:11:22;2.42;;;1.02;;
33740;SDS011;20065;48.380;10.892;2022-11-04T03:14:12;3.47;;;1.70;;
33740;SDS011;20065;48.380;10.892;2022-11-04T03:17:07;3.88;;;1.42;;
33740;SDS011;20065;48.380;10.892;2022-11-04T03:20:08;5.47;;;1.80;;
33740;SDS011;20065;48.380;10.892;2022-11-04T03:23:02;3.75;;;1.25;;
33740;SDS011;20065;48.380;10.892;2022-11-04T03:25:50;4.18;;;1.10;;
33740;SDS011;20065;48.380;10.892;2022-11-04T03:28:43;3.75;;;1.00;;
33740;SDS011;20065;48.380;10.892;2022-11-04T03:31:39;2.88;;;1.30;;
33740;SDS011;20065;48.380;10.892;2022-11-04T03:34:50;2.22;;;0.90;;
33740;SDS011;20065;48.380;10.892;2022-11-04T03:37:37;2.10;;;0.80;;
33740;SDS011;20065;48.380;10.892;2022-11-04T03:40:23;2.40;;;1.30;;
33740;SDS011;20065;48.380;10.892;2022-11-04T03:43:11;3.00;;;1.08;;
33740;SDS011;20065;48.380;10.892;2022-11-04T03:46:01;3.15;;;1.08;;
33740;SDS011;20065;48.380;10.892;2022-11-04T03:48:49;3.17;;;1.00;;
33740;SDS011;20065;48.380;10.892;2022-11-04T03:51:37;3.10;;;1.30;;
33740;SDS011;20065;48.380;10.892;2022-11-04T03:54:23;2.15;;;0.82;;
33740;SDS011;20065;48.380;10.892;2022-11-04T04:03:06;2.58;;;1.00;;
33740;SDS011;20065;48.380;10.892;2022-11-04T04:06:09;2.00;;;0.70;;
33740;SDS011;20065;48.380;10.892;2022-11-04T04:09:22;2.10;;;0.90;;
33740;SDS011;20065;48.380;10.892;2022-11-04T04:15:37;2.10;;;0.80;;
33740;SDS011;20065;48.380;10.892;2022-11-04T04:21:38;2.20;;;0.80;;
33740;SDS011;20065;48.380;10.892;2022-11-04T04:24:47;2.47;;;1.00;;
33740;SDS011;20065;48.380;10.892;2022-11-04T04:27:55;3.58;;;0.93;;
33740;SDS011;20065;48.380;10.892;2022-11-04T04:30:43;2.40;;;1.00;;
33740;SDS011;20065;48.380;10.892;2022-11-04T04:33:30;2.58;;;1.00;;
33740;SDS011;20065;48.380;10.892;2022-11-04T04:36:16;2.35;;;0.98;;
33740;SDS011;20065;48.380;10.892;2022-11-04T04:39:03;2.40;;;1.05;;
33740;SDS011;20065;48.380;10.892;2022-11-04T04:42:10;3.17;;;1.00;;
33740;SDS011;20065;48.380;10.892;2022-11-04T04:45:22;2.92;;;1.10;;
33740;SDS011;20065;48.380;10.892;2022-11-04T04:48:18;2.00;;;0.68;;
33740;SDS011;20065;48.380;10.892;2022-11-04T04:51:04;2.83;;;1.20;;
33740;SDS011;20065;48.380;10.892;2022-11-04T04:53:50;2.10;;;0.90;;
33740;SDS011;20065;48.380;10.892;2022-11-04T04:56:36;3.25;;;1.02;;
33740;SDS011;20065;48.380;10.892;2022-11-04T04:59:23;3.20;;;1.17;;
33740;SDS011;20065;48.380;10.892;2022-11-04T05:02:09;2.70;;;1.00;;
33740;SDS011;20065;48.380;10.892;2022-11-04T05:04:55;2.10;;;0.88;;
33740;SDS011;20065;48.380;10.892;2022-11-04T05:07:41;2.47;;;0.98;;
33740;SDS011;20065;48.380;10.892;2022-11-04T05:10:28;3.15;;;0.98;;
33740;SDS011;20065;48.380;10.892;2022-11-04T05:13:14;2.22;;;0.90;;
33740;SDS011;20065;48.380;10.892;2022-11-04T05:16:14;3.15;;;1.10;;
33740;SDS011;20065;48.380;10.892;2022-11-04T05:19:00;3.70;;;1.40;;
33740;SDS011;20065;48.380;10.892;2022-11-04T05:21:46;2.00;;;0.90;;
33740;SDS011;20065;48.380;10.892;2022-11-04T05:24:33;2.08;;;0.80;;
33740;SDS011;20065;48.380;10.892;2022-11-04T05:27:19;2.70;;;0.93;;
33740;SDS011;20065;48.380;10.892;2022-11-04T05:30:05;3.15;;;0.98;;
33740;SDS011;20065;48.380;10.892;2022-11-04T05:32:52;3.55;;;0.90;;
33740;SDS011;20065;48.380;10.892;2022-11-04T05:35:38;2.75;;;1.25;;
33740;SDS011;20065;48.380;10.892;2022-11-04T05:38:24;3.50;;;1.20;;
33740;SDS011;20065;48.380;10.892;2022-11-04T05:41:10;3.13;;;1.20;;
33740;SDS011;20065;48.380;10.892;2022-11-04T05:44:09;2.45;;;1.00;;
33740;SDS011;20065;48.380;10.892;2022-11-04T05:46:56;2.67;;;1.35;;
33740;SDS011;20065;48.380;10.892;2022-11-04T05:49:42;2.67;;;1.35;;
33740;SDS011;20065;48.380;10.892;2022-11-04T05:52:28;4.72;;;1.40;;
33740;SDS011;20065;48.380;10.892;2022-11-04T05:55:14;2.85;;;1.27;;
33740;SDS011;20065;48.380;10.892;2022-11-04T05:58:01;2.83;;;1.30;;
33740;SDS011;20065;48.380;10.892;2022-11-04T06:00:47;5.22;;;1.52;;
33740;SDS011;20065;48.380;10.892;2022-11-04T06:03:33;5.13;;;1.20;;
33740;SDS011;20065;48.380;10.892;2022-11-04T06:06:20;3.53;;;1.02;;
33740;SDS011;20065;48.380;10.892;2022-11-04T06:09:07;4.22;;;1.20;;
33740;SDS011;20065;48.380;10.892;2022-11-04T06:11:53;3.70;;;1.40;;
33740;SDS011;20065;48.380;10.892;2022-11-04T06:14:40;3.08;;;1.02;;
33740;SDS011;20065;48.380;10.892;2022-11-04T06:17:27;4.75;;;1.42;;
33740;SDS011;20065;48.380;10.892;2022-11-04T06:20:13;6.28;;;1.65;;
33740;SDS011;20065;48.380;10.892;2022-11-04T06:22:59;3.75;;;1.73;;
33740;SDS011;20065;48.380;10.892;2022-11-04T06:25:45;2.95;;;1.42;;
33740;SDS011;20065;48.380;10.892;2022-11-04T06:28:32;2.58;;;1.10;;
33740;SDS011;20065;48.380;10.892;2022-11-04T06:31:21;3.55;;;1.45;;
33740;SDS011;20065;48.380;10.892;2022-11-04T06:34:10;4.78;;;1.65;;
33740;SDS011;20065;48.380;10.892;2022-11-04T06:36:57;4.10;;;1.58;;
33740;SDS011;20065;48.380;10.892;2022-11-04T06:39:43;6.20;;;1.83;;
33740;SDS011;20065;48.380;10.892;2022-11-04T06:42:30;5.32;;;2.33;;
33740;SDS011;20065;48.380;10.892;2022-11-04T06:45:16;4.30;;;2.30;;
33740;SDS011;20065;48.380;10.892;2022-11-04T06:48:02;3.55;;;1.48;;
33740;SDS011;20065;48.380;10.892;2022-11-04T06:50:48;4.47;;;1.60;;
33740;SDS011;20065;48.380;10.892;2022-11-04T06:53:35;3.50;;;1.50;;
33740;SDS011;20065;48.380;10.892;2022-11-04T06:56:21;3.28;;;1.40;;
33740;SDS011;20065;48.380;10.892;2022-11-04T06:59:07;7.70;;;1.88;;
33740;SDS011;20065;48.380;10.892;2022-11-04T07:01:59;3.58;;;2.00;;
33740;SDS011;20065;48.380;10.892;2022-11-04T07:04:45;4.25;;;1.67;;
33740;SDS011;20065;48.380;10.892;2022-11-04T07:07:31;3.45;;;1.48;;
33740;SDS011;20065;48.380;10.892;2022-11-04T07:10:18;7.65;;;1.60;;
33740;SDS011;20065;48.380;10.892;2022-11-04T07:13:04;3.78;;;1.50;;
33740;SDS011;20065;48.380;10.892;2022-11-04T07:15:50;3.60;;;1.80;;
33740;SDS011;20065;48.380;10.892;2022-11-04T07:18:36;3.08;;;1.40;;
33740;SDS011;20065;48.380;10.892;2022-11-04T07:21:23;4.55;;;1.83;;
33740;SDS011;20065;48.380;10.892;2022-11-04T07:24:09;4.70;;;1.88;;
33740;SDS011;20065;48.380;10.892;2022-11-04T07:26:55;3.30;;;1.50;;
33740;SDS011;20065;48.380;10.892;2022-11-04T07:29:41;3.90;;;1.60;;
33740;SDS011;20065;48.380;10.892;2022-11-04T07:32:28;2.83;;;1.20;;
33740;SDS011;20065;48.380;10.892;2022-11-04T07:35:14;6.43;;;2.00;;
33740;SDS011;20065;48.380;10.892;2022-11-04T07:38:00;4.13;;;1.95;;
33740;SDS011;20065;48.380;10.892;2022-11-04T07:40:48;3.85;;;1.80;;
33740;SDS011;20065;48.380;10.892;2022-11-04T07:43:35;10.43;;;1.63;;
33740;SDS011;20065;48.380;10.892;2022-11-04T07:46:22;3.75;;;1.80;;
33740;SDS011;20065;48.380;10.892;2022-11-04T07:49:08;4.65;;;1.65;;
33740;SDS011;20065;48.380;10.892;2022-11-04T07:51:55;5.82;;;2.53;;
33740;SDS011;20065;48.380;10.892;2022-11-04T07:54:45;3.40;;;1.45;;
33740;SDS011;20065;48.380;10.892;2022-11-04T07:57:31;2.78;;;1.38;;
33740;SDS011;20065;48.380;10.892;2022-11-04T08:00:17;7.57;;;1.25;;
33740;SDS011;20065;48.380;10.892;2022-11-04T08:03:04;3.28;;;1.50;;
33740;SDS011;20065;48.380;10.892;2022-11-04T08:05:57;2.83;;;1.10;;
33740;SDS011;20065;48.380;10.892;2022-11-04T08:08:45;4.30;;;1.30;;
33740;SDS011;20065;48.380;10.892;2022-11-04T08:11:32;2.45;;;1.10;;
33740;SDS011;20065;48.380;10.892;2022-11-04T08:14:19;3.40;;;1.58;;
33740;SDS011;20065;48.380;10.892;2022-11-04T08:17:05;5.00;;;2.50;;
33740;SDS011;20065;48.380;10.892;2022-11-04T08:19:52;5.22;;;1.70;;
33740;SDS011;20065;48.380;10.892;2022-11-04T08:22:38;6.85;;;2.17;;
33740;SDS011;20065;48.380;10.892;2022-11-04T08:25:25;3.65;;;1.50;;
33740;SDS011;20065;48.380;10.892;2022-11-04T08:28:11;3.97;;;2.13;;
33740;SDS011;20065;48.380;10.892;2022-11-04T08:31:06;9.10;;;3.20;;
33740;SDS011;20065;48.380;10.892;2022-11-04T08:34:02;4.47;;;1.90;;
33740;SDS011;20065;48.380;10.892;2022-11-04T08:36:50;4.55;;;2.03;;
33740;SDS011;20065;48.380;10.892;2022-11-04T08:39:42;4.13;;;2.15;;
33740;SDS011;20065;48.380;10.892;2022-11-04T08:42:29;7.28;;;3.47;;
33740;SDS011;20065;48.380;10.892;2022-11-04T08:45:15;7.07;;;3.47;;
33740;SDS011;20065;48.380;10.892;2022-11-04T08:48:02;5.10;;;2.42;;
33740;SDS011;20065;48.380;10.892;2022-11-04T08:50:49;6.28;;;2.28;;
33740;SDS011;20065;48.380;10.892;2022-11-04T08:53:37;4.57;;;2.10;;
33740;SDS011;20065;48.380;10.892;2022-11-04T08:56:28;3.90;;;2.05;;
33740;SDS011;20065;48.380;10.892;2022-11-04T08:59:16;3.75;;;2.00;;
33740;SDS011;20065;48.380;10.892;2022-11-04T09:02:05;4.57;;;2.75;;
33740;SDS011;20065;48.380;10.892;2022-11-04T09:04:55;6.00;;;3.05;;
33740;SDS011;20065;48.380;10.892;2022-11-04T09:07:42;8.73;;;4.38;;
33740;SDS011;20065;48.380;10.892;2022-11-04T09:10:29;8.63;;;4.38;;
33740;SDS011;20065;48.380;10.892;2022-11-04T09:13:16;8.43;;;2.85;;
33740;SDS011;20065;48.380;10.892;2022-11-04T09:16:03;5.63;;;2.92;;
33740;SDS011;20065;48.380;10.892;2022-11-04T09:18:50;6.38;;;3.47;;
33740;SDS011;20065;48.380;10.892;2022-11-04T09:21:36;7.97;;;2.72;;
33740;SDS011;20065;48.380;10.892;2022-11-04T09:24:24;5.15;;;2.50;;
33740;SDS011;20065;48.380;10.892;2022-11-04T09:27:15;6.20;;;2.60;;
33740;SDS011;20065;48.380;10.892;2022-11-04T09:30:01;3.83;;;2.10;;
33740;SDS011;20065;48.380;10.892;2022-11-04T09:32:54;4.85;;;2.67;;
33740;SDS011;20065;48.380;10.892;2022-11-04T09:35:40;6.05;;;2.50;;
33740;SDS011;20065;48.380;10.892;2022-11-04T09:38:27;4.13;;;2.45;;
33740;SDS011;20065;48.380;10.892;2022-11-04T09:44:47;3.88;;;2.20;;
33740;SDS011;20065;48.380;10.892;2022-11-04T09:47:59;4.00;;;2.00;;
33740;SDS011;20065;48.380;10.892;2022-11-04T09:50:56;4.00;;;1.90;;
33740;SDS011;20065;48.380;10.892;2022-11-04T09:53:47;4.15;;;2.22;;
33740;SDS011;20065;48.380;10.892;2022-11-04T09:56:41;3.55;;;2.13;;
33740;SDS011;20065;48.380;10.892;2022-11-04T09:59:31;5.13;;;2.38;;
33740;SDS011;20065;48.380;10.892;2022-11-04T10:05:38;4.30;;;2.33;;
33740;SDS011;20065;48.380;10.892;2022-11-04T10:11:34;4.63;;;2.65;;
33740;SDS011;20065;48.380;10.892;2022-11-04T10:23:35;5.35;;;2.40;;
33740;SDS011;20065;48.380;10.892;2022-11-04T10:26:31;5.30;;;2.90;;
33740;SDS011;20065;48.380;10.892;2022-11-04T10:29:35;4.55;;;3.05;;
33740;SDS011;20065;48.380;10.892;2022-11-04T10:35:20;5.40;;;3.13;;
33740;SDS011;20065;48.380;10.892;2022-11-04T10:41:34;5.45;;;3.53;;
33740;SDS011;20065;48.380;10.892;2022-11-04T10:44:27;3.80;;;2.53;;
33740;SDS011;20065;48.380;10.892;2022-11-04T10:59:22;6.28;;;2.75;;
33740;SDS011;20065;48.380;10.892;2022-11-04T11:02:14;11.15;;;3.08;;
33740;SDS011;20065;48.380;10.892;2022-11-04T11:08:02;5.80;;;2.08;;
33740;SDS011;20065;48.380;10.892;2022-11-04T11:10:50;4.40;;;2.35;;
33740;SDS011;20065;48.380;10.892;2022-11-04T11:13:38;5.47;;;2.45;;
33740;SDS011;20065;48.380;10.892;2022-11-04T11:16:26;4.85;;;2.70;;
33740;SDS011;20065;48.380;10.892;2022-11-04T11:19:17;3.70;;;1.90;;
33740;SDS011;20065;48.380;10.892;2022-11-04T11:22:06;6.68;;;2.40;;
33740;SDS011;20065;48.380;10.892;2022-11-04T11:25:32;4.32;;;2.50;;
33740;SDS011;20065;48.380;10.892;2022-11-04T11:28:23;5.55;;;2.60;;
33740;SDS011;20065;48.380;10.892;2022-11-04T11:31:14;3.85;;;2.05;;
33740;SDS011;20065;48.380;10.892;2022-11-04T11:34:20;4.32;;;2.30;;
33740;SDS011;20065;48.380;10.892;2022-11-04T11:37:21;5.45;;;2.25;;
33740;SDS011;20065;48.380;10.892;2022-11-04T11:40:21;6.25;;;2.28;;
33740;SDS011;20065;48.380;10.892;2022-11-04T11:43:24;4.60;;;2.28;;
33740;SDS011;20065;48.380;10.892;2022-11-04T11:46:25;5.40;;;2.35;;
33740;SDS011;20065;48.380;10.892;2022-11-04T11:49:22;4.10;;;3.00;;
33740;SDS011;20065;48.380;10.892;2022-11-04T11:52:15;4.05;;;2.15;;
33740;SDS011;20065;48.380;10.892;2022-11-04T12:01:23;4.53;;;2.40;;
33740;SDS011;20065;48.380;10.892;2022-11-04T12:04:19;4.38;;;2.03;;
33740;SDS011;20065;48.380;10.892;2022-11-04T12:40:24;4.63;;;2.03;;
33740;SDS011;20065;48.380;10.892;2022-11-04T13:00:39;3.95;;;2.20;;
33740;SDS011;20065;48.380;10.892;2022-11-04T13:06:26;5.65;;;2.85;;
33740;SDS011;20065;48.380;10.892;2022-11-04T13:09:24;4.82;;;2.50;;
33740;SDS011;20065;48.380;10.892;2022-11-04T13:12:16;6.20;;;2.65;;
33740;SDS011;20065;48.380;10.892;2022-11-04T13:15:12;4.13;;;2.17;;
33740;SDS011;20065;48.380;10.892;2022-11-04T13:18:03;8.13;;;3.05;;
33740;SDS011;20065;48.380;10.892;2022-11-04T13:20:57;5.38;;;2.75;;
33740;SDS011;20065;48.380;10.892;2022-11-04T13:24:04;6.88;;;3.20;;
33740;SDS011;20065;48.380;10.892;2022-11-04T13:27:17;7.65;;;2.85;;
33740;SDS011;20065;48.380;10.892;2022-11-04T13:33:17;8.52;;;3.10;;
33740;SDS011;20065;48.380;10.892;2022-11-04T13:39:18;4.43;;;2.15;;
33740;SDS011;20065;48.380;10.892;2022-11-04T13:45:39;5.72;;;2.40;;
33740;SDS011;20065;48.380;10.892;2022-11-04T13:48:35;5.65;;;2.50;;
33740;SDS011;20065;48.380;10.892;2022-11-04T13:57:18;7.30;;;4.10;;
33740;SDS011;20065;48.380;10.892;2022-11-04T14:06:07;6.00;;;2.70;;
33740;SDS011;20065;48.380;10.892;2022-11-04T14:15:07;3.35;;;1.70;;
33740;SDS011;20065;48.380;10.892;2022-11-04T14:17:56;4.00;;;2.40;;
33740;SDS011;20065;48.380;10.892;2022-11-04T14:20:59;4.72;;;2.40;;
33740;SDS011;20065;48.380;10.892;2022-11-04T14:23:52;6.80;;;3.00;;
33740;SDS011;20065;48.380;10.892;2022-11-04T14:26:45;4.78;;;2.40;;
33740;SDS011;20065;48.380;10.892;2022-11-04T14:29:33;5.18;;;2.10;;
33740;SDS011;20065;48.380;10.892;2022-11-04T14:32:21;4.45;;;2.08;;
33740;SDS011;20065;48.380;10.892;2022-11-04T14:35:16;4.97;;;2.03;;
33740;SDS011;20065;48.380;10.892;2022-11-04T14:38:16;5.60;;;2.30;;
33740;SDS011;20065;48.380;10.892;2022-11-04T14:41:29;10.80;;;3.15;;
33740;SDS011;20065;48.380;10.892;2022-11-04T14:47:27;8.18;;;3.08;;
33740;SDS011;20065;48.380;10.892;2022-11-04T14:50:17;5.55;;;2.40;;
33740;SDS011;20065;48.380;10.892;2022-11-04T14:53:15;4.22;;;2.15;;
33740;SDS011;20065;48.380;10.892;2022-11-04T14:56:21;6.15;;;2.50;;
33740;SDS011;20065;48.380;10.892;2022-11-04T14:59:16;4.90;;;2.30;;
33740;SDS011;20065;48.380;10.892;2022-11-04T15:02:13;6.00;;;2.38;;
33740;SDS011;20065;48.380;10.892;2022-11-04T15:05:20;5.35;;;2.60;;
33740;SDS011;20065;48.380;10.892;2022-11-04T15:14:10;8.50;;;3.15;;
33740;SDS011;20065;48.380;10.892;2022-11-04T15:17:09;7.05;;;2.80;;
33740;SDS011;20065;48.380;10.892;2022-11-04T15:20:03;6.82;;;2.92;;
33740;SDS011;20065;48.380;10.892;2022-11-04T15:22:53;7.18;;;3.55;;
33740;SDS011;20065;48.380;10.892;2022-11-04T15:25:47;6.40;;;3.10;;
33740;SDS011;20065;48.380;10.892;2022-11-04T15:28:37;6.25;;;3.38;;
33740;SDS011;20065;48.380;10.892;2022-11-04T15:31:51;5.25;;;3.00;;
33740;SDS011;20065;48.380;10.892;2022-11-04T15:34:41;8.43;;;2.78;;
33740;SDS011;20065;48.380;10.892;2022-11-04T15:37:29;4.57;;;2.38;;
33740;SDS011;20065;48.380;10.892;2022-11-04T15:40:16;5.85;;;2.83;;
33740;SDS011;20065;48.380;10.892;2022-11-04T15:43:03;6.22;;;1.90;;
33740;SDS011;20065;48.380;10.892;2022-11-04T15:45:51;6.85;;;2.10;;
33740;SDS011;20065;48.380;10.892;2022-11-04T15:48:38;6.00;;;2.53;;
33740;SDS011;20065;48.380;10.892;2022-11-04T15:51:27;6.25;;;2.45;;
33740;SDS011;20065;48.380;10.892;2022-11-04T15:54:23;8.45;;;2.50;;
33740;SDS011;20065;48.380;10.892;2022-11-04T15:57:21;6.57;;;3.45;;
33740;SDS011;20065;48.380;10.892;2022-11-04T16:03:01;7.97;;;4.20;;
33740;SDS011;20065;48.380;10.892;2022-11-04T16:06:02;7.20;;;4.10;;
33740;SDS011;20065;48.380;10.892;2022-11-04T16:12:04;8.13;;;3.50;;
33740;SDS011;20065;48.380;10.892;2022-11-04T16:15:01;6.50;;;3.35;;
33740;SDS011;20065;48.380;10.892;2022-11-04T16:17:48;4.88;;;2.92;;
33740;SDS011;20065;48.380;10.892;2022-11-04T16:20:34;9.68;;;5.05;;
33740;SDS011;20065;48.380;10.892;2022-11-04T16:23:21;13.88;;;8.60;;
33740;SDS011;20065;48.380;10.892;2022-11-04T16:26:09;9.20;;;5.15;;
33740;SDS011;20065;48.380;10.892;2022-11-04T16:28:57;19.25;;;7.50;;
33740;SDS011;20065;48.380;10.892;2022-11-04T16:31:44;6.10;;;3.20;;
33740;SDS011;20065;48.380;10.892;2022-11-04T16:34:30;7.95;;;3.17;;
33740;SDS011;20065;48.380;10.892;2022-11-04T16:37:18;8.75;;;2.63;;
33740;SDS011;20065;48.380;10.892;2022-11-04T16:40:04;5.30;;;2.50;;
33740;SDS011;20065;48.380;10.892;2022-11-04T16:42:52;5.55;;;3.13;;
33740;SDS011;20065;48.380;10.892;2022-11-04T16:45:38;6.00;;;2.70;;
33740;SDS011;20065;48.380;10.892;2022-11-04T16:48:28;4.47;;;3.00;;
33740;SDS011;20065;48.380;10.892;2022-11-04T16:51:15;5.65;;;2.88;;
33740;SDS011;20065;48.380;10.892;2022-11-04T16:54:03;5.53;;;3.15;;
33740;SDS011;20065;48.380;10.892;2022-11-04T16:56:49;8.00;;;3.75;;
33740;SDS011;20065;48.380;10.892;2022-11-04T16:59:36;7.18;;;3.53;;
33740;SDS011;20065;48.380;10.892;2022-11-04T17:02:27;8.20;;;2.95;;
33740;SDS011;20065;48.380;10.892;2022-11-04T17:05:19;5.03;;;3.15;;
33740;SDS011;20065;48.380;10.892;2022-11-04T17:08:07;7.80;;;3.40;;
33740;SDS011;20065;48.380;10.892;2022-11-04T17:10:54;6.05;;;3.40;;
33740;SDS011;20065;48.380;10.892;2022-11-04T17:13:40;5.18;;;3.40;;
33740;SDS011;20065;48.380;10.892;2022-11-04T17:16:26;4.47;;;2.88;;
33740;SDS011;20065;48.380;10.892;2022-11-04T17:19:13;7.45;;;3.42;;
33740;SDS011;20065;48.380;10.892;2022-11-04T17:22:01;6.03;;;2.90;;
33740;SDS011;20065;48.380;10.892;2022-11-04T17:24:50;6.45;;;3.00;;
33740;SDS011;20065;48.380;10.892;2022-11-04T17:27:37;6.35;;;4.00;;
33740;SDS011;20065;48.380;10.892;2022-11-04T17:30:25;8.30;;;4.72;;
33740;SDS011;20065;48.380;10.892;2022-11-04T17:33:15;7.63;;;4.10;;
33740;SDS011;20065;48.380;10.892;2022-11-04T17:36:03;9.63;;;4.18;;
33740;SDS011;20065;48.380;10.892;2022-11-04T17:38:49;5.78;;;3.25;;
33740;SDS011;20065;48.380;10.892;2022-11-04T17:41:36;5.45;;;3.05;;
33740;SDS011;20065;48.380;10.892;2022-11-04T17:44:43;5.18;;;2.90;;
33740;SDS011;20065;48.380;10.892;2022-11-04T17:47:33;6.15;;;3.05;;
33740;SDS011;20065;48.380;10.892;2022-11-04T17:50:20;8.25;;;5.20;;
33740;SDS011;20065;48.380;10.892;2022-11-04T17:53:07;10.65;;;4.22;;
33740;SDS011;20065;48.380;10.892;2022-11-04T17:55:56;8.63;;;3.60;;
33740;SDS011;20065;48.380;10.892;2022-11-04T17:58:45;6.85;;;3.70;;
33740;SDS011;20065;48.380;10.892;2022-11-04T18:01:32;6.45;;;3.92;;
33740;SDS011;20065;48.380;10.892;2022-11-04T18:04:20;7.50;;;3.80;;
33740;SDS011;20065;48.380;10.892;2022-11-04T18:07:07;7.50;;;5.13;;
33740;SDS011;20065;48.380;10.892;2022-11-04T18:09:54;6.85;;;4.07;;
33740;SDS011;20065;48.380;10.892;2022-11-04T18:12:40;7.40;;;4.45;;
33740;SDS011;20065;48.380;10.892;2022-11-04T18:15:27;7.07;;;4.03;;
33740;SDS011;20065;48.380;10.892;2022-11-04T18:18:13;8.95;;;4.85;;
33740;SDS011;20065;48.380;10.892;2022-11-04T18:21:03;6.85;;;3.72;;
33740;SDS011;20065;48.380;10.892;2022-11-04T18:23:53;7.72;;;4.35;;
33740;SDS011;20065;48.380;10.892;2022-11-04T18:26:40;13.98;;;8.23;;
33740;SDS011;20065;48.380;10.892;2022-11-04T18:29:27;13.68;;;8.95;;
33740;SDS011;20065;48.380;10.892;2022-11-04T18:32:13;8.10;;;5.47;;
33740;SDS011;20065;48.380;10.892;2022-11-04T18:34:59;17.67;;;10.93;;
33740;SDS011;20065;48.380;10.892;2022-11-04T18:37:45;14.10;;;6.63;;
33740;SDS011;20065;48.380;10.892;2022-11-04T18:40:32;10.30;;;6.38;;
33740;SDS011;20065;48.380;10.892;2022-11-04T18:43:19;7.68;;;4.40;;
33740;SDS011;20065;48.380;10.892;2022-11-04T18:46:07;14.40;;;8.75;;
33740;SDS011;20065;48.380;10.892;2022-11-04T18:48:59;7.88;;;4.97;;
33740;SDS011;20065;48.380;10.892;2022-11-04T18:51:45;6.78;;;4.72;;
33740;SDS011;20065;48.380;10.892;2022-11-04T18:54:32;6.28;;;4.55;;
33740;SDS011;20065;48.380;10.892;2022-11-04T18:57:18;9.38;;;4.82;;
33740;SDS011;20065;48.380;10.892;2022-11-04T19:00:05;9.02;;;5.53;;
33740;SDS011;20065;48.380;10.892;2022-11-04T19:02:52;10.02;;;6.10;;
33740;SDS011;20065;48.380;10.892;2022-11-04T19:05:39;9.82;;;5.88;;
33740;SDS011;20065;48.380;10.892;2022-11-04T19:08:26;10.43;;;6.13;;
33740;SDS011;20065;48.380;10.892;2022-11-04T19:11:14;17.13;;;9.32;;
33740;SDS011;20065;48.380;10.892;2022-11-04T19:14:06;21.08;;;12.82;;
33740;SDS011;20065;48.380;10.892;2022-11-04T19:16:58;24.75;;;12.68;;
33740;SDS011;20065;48.380;10.892;2022-11-04T19:19:45;15.75;;;8.98;;
33740;SDS011;20065;48.380;10.892;2022-11-04T19:22:32;17.30;;;10.80;;
33740;SDS011;20065;48.380;10.892;2022-11-04T19:25:20;14.35;;;8.93;;
33740;SDS011;20065;48.380;10.892;2022-11-04T19:28:06;14.57;;;9.90;;
33740;SDS011;20065;48.380;10.892;2022-11-04T19:31:01;10.90;;;7.40;;
33740;SDS011;20065;48.380;10.892;2022-11-04T19:33:48;12.73;;;7.93;;
33740;SDS011;20065;48.380;10.892;2022-11-04T19:36:34;9.65;;;6.50;;
33740;SDS011;20065;48.380;10.892;2022-11-04T19:39:22;13.65;;;8.50;;
33740;SDS011;20065;48.380;10.892;2022-11-04T19:42:08;16.67;;;10.60;;
33740;SDS011;20065;48.380;10.892;2022-11-04T19:45:14;14.05;;;9.00;;
33740;SDS011;20065;48.380;10.892;2022-11-04T19:48:00;10.50;;;7.53;;
33740;SDS011;20065;48.380;10.892;2022-11-04T19:50:47;10.38;;;7.50;;